Nevada City, CA (95959)

6:11 PM PDT on August 28, 2015 (GMT -0700)
Willow Valley Lodge | | Change Station
CLOSE
Current Station
Personal Weather Station
Location: Nevada City, CA
Elevation: 2560 ft
Nearby Weather Stations

Elev 2560 ft 39.27 °N, 121.01 °W | Updated 4 seconds ago

Clear
Clear
84.4 °F
Feels Like 82 °F
N
0.0
Wind Variable Wind from SW
Gusts 0.0 mph

Today
High -- | Low -- °F
--% Chance of Precip.
Yesterday
High -- | Low -- °F
Precip. -- in
6:28 AM 7:41 PM
Waxing Gibbous, 99% visible
Pressure 30.02 in
Visibility 10.0 miles
Clouds Clear
Heat Index 82 °F
Dew Point 40 °F
Humidity 21%
Rainfall 0.00 in
Snow Depth Not available.
UV 1.0 out of 12
Pollen 7.60 out of 12
Air Quality Not available.
Flu Activity Not available.
METAR KGOO 290100Z AUTO 22003KT 10SM CLR 29/05 A3002 RMK AO1
Pressure 30.02 in
Visibility 10.0 miles
Clouds Clear
Heat Index 82 °F
Dew Point 40 °F
Humidity 21%
Rainfall 0.00 in
Snow Depth Not available.
UV 1.0 out of 12
Pollen 7.60 out of 12
Air Quality Not available.
Flu Activity Not available.
METAR KGOO 290100Z AUTO 22003KT 10SM CLR 29/05 A3002 RMK AO1

10-Day Weather Forecast

×

Almanac

Astronomy

Aug. 28, 2015 Rise Set
Actual Time
Civil Twilight
Nautical Twilight
Astronomical Twilight
Moon
Length of Visible Light
Length of Day
Tomorrow will be .
, % of the Moon is Illuminated

Today's Extremes

State Highs State Lows

Community

WunderPhotos

Upload Photos

1,850,561 photos uploaded!

WunderBlogs® & News

Nearby

Air Quality

  Air Quality AQ Index Pollutant
Not available.

Snow Depth

Station Depth Elevation

Earthquake Activity

City Distance Mag. Time & Date
Minimum magnitude displayed is 2.5.

Coastal Water Temperatures

Place Temperature

Stations

Nearby Weather Stations

Station Location Temp. Windchill Dew Point Humidity Wind Precip. Elev Updated Type